Time;durP1;ratioP1;P1;durP2;ratioP2;P2;SDS_P1;SDS_P2;PMS_P1;PMS_P2;Temp;Humidity;BMP_temperature;BMP_pressure;BME280_temperature;BME280_humidity;BME280_pressure;Samples;Min_cycle;Max_cycle;Signal;HPM_P1;HPM_P2
2022/04/12 00:02:03;;;;;;;7.43;3.10;;;6.40;99.90;;;;;;6260787;23;20091;-93
2022/04/12 00:04:35;;;;;;;6.90;3.20;;;6.40;99.90;;;;;;6255359;23;20020;-87
2022/04/12 00:07:03;;;;;;;6.38;3.05;;;6.40;99.90;;;;;;6204680;23;20016;-96
2022/04/12 00:09:29;;;;;;;10.18;3.35;;;6.40;99.90;;;;;;6255476;23;20020;-95
2022/04/12 00:11:58;;;;;;;6.28;3.15;;;6.30;99.90;;;;;;6247134;23;20015;-90
2022/04/12 00:14:24;;;;;;;10.32;3.22;;;6.30;99.90;;;;;;6248593;23;20020;-96
2022/04/12 00:19:02;;;;;;;9.53;3.50;;;6.30;99.90;;;;;;6228152;23;20016;-90
2022/04/12 00:20:26;;;;;;;6.18;3.22;;;6.20;99.90;;;;;;6257568;23;20031;-88
2022/04/12 00:23:23;;;;;;;6.97;3.20;;;6.20;99.90;;;;;;6205721;23;20035;-94
2022/04/12 00:25:49;;;;;;;6.03;3.15;;;6.10;99.90;;;;;;6252029;23;20012;-93
2022/04/12 00:28:15;;;;;;;8.60;3.28;;;6.10;99.90;;;;;;6254394;23;20027;-88
2022/04/12 00:30:42;;;;;;;11.00;3.65;;;6.10;99.90;;;;;;6204119;23;20016;-89
2022/04/12 00:33:08;;;;;;;;;;;6.10;99.90;;;;;;6228958;23;20443;-88
2022/04/12 00:35:49;;;;;;;9.35;3.58;;;6.10;99.90;;;;;;6232468;23;19923;-88
2022/04/12 00:38:17;;;;;;;7.90;3.30;;;6.10;99.90;;;;;;6247400;23;20016;-95
2022/04/12 00:40:49;;;;;;;8.02;3.80;;;6.00;99.90;;;;;;6221503;23;20048;-93
2022/04/12 00:43:18;;;;;;;7.63;3.58;;;6.10;99.90;;;;;;6246465;23;20034;-92
2022/04/12 00:45:45;;;;;;;7.28;3.30;;;6.00;99.90;;;;;;6221363;23;20012;-88
2022/04/12 00:48:11;;;;;;;7.75;3.80;;;6.00;99.90;;;;;;6246717;23;20012;-90
2022/04/12 00:50:37;;;;;;;9.10;4.13;;;6.00;99.90;;;;;;6222592;23;20062;-92
2022/04/12 00:53:06;;;;;;;8.43;3.72;;;6.00;99.90;;;;;;6225293;23;20012;-87
2022/04/12 00:55:32;;;;;;;6.80;3.83;;;6.00;99.90;;;;;;6225733;23;20031;-88
2022/04/12 00:57:58;;;;;;;7.53;4.00;;;6.00;99.90;;;;;;6271671;22;20039;-96
2022/04/12 01:00:24;;;;;;;7.35;3.65;;;5.90;99.90;;;;;;6247260;23;20445;-93
2022/04/12 01:02:50;;;;;;;7.20;3.63;;;5.90;99.90;;;;;;6249084;23;20016;-96
2022/04/12 01:05:16;;;;;;;8.37;3.70;;;5.90;99.90;;;;;;6247491;23;20016;-89
2022/04/12 01:07:43;;;;;;;10.97;4.37;;;5.90;99.90;;;;;;6248260;23;20384;-96
2022/04/12 01:10:17;;;;;;;7.60;3.70;;;5.90;99.90;;;;;;6247375;23;20012;-93
2022/04/12 01:12:53;;;;;;;8.40;3.47;;;5.90;99.90;;;;;;6221835;23;20012;-89
2022/04/12 01:15:24;;;;;;;9.30;4.05;;;5.90;99.90;;;;;;6220578;23;20326;-90
2022/04/12 01:17:51;;;;;;;12.02;4.63;;;5.80;99.90;;;;;;6220942;23;20441;-88
2022/04/12 01:20:19;;;;;;;8.20;4.03;;;5.80;99.90;;;;;;6247361;23;20091;-88
2022/04/12 01:23:14;;;;;;;7.53;3.90;;;5.80;99.90;;;;;;6271317;22;20027;-89
2022/04/12 01:25:40;;;;;;;8.73;4.10;;;5.80;99.90;;;;;;6246078;23;20099;-85
2022/04/12 01:28:37;;;;;;;9.17;4.33;;;5.80;99.90;;;;;;6221882;23;20027;-87
2022/04/12 01:31:26;;;;;;;7.45;4.15;;;5.70;99.90;;;;;;6250268;23;20350;-94
2022/04/12 01:33:53;;;;;;;7.55;4.15;;;5.70;99.90;;;;;;6221440;23;20016;-92
2022/04/12 01:36:19;;;;;;;8.15;4.25;;;5.70;99.90;;;;;;6245957;23;20099;-89
2022/04/12 01:38:45;;;;;;;9.82;4.50;;;5.70;99.90;;;;;;6245838;23;20433;-89
2022/04/12 01:41:16;;;;;;;9.10;4.63;;;5.60;99.90;;;;;;6247900;23;20012;-92
2022/04/12 01:43:42;;;;;;;8.20;4.20;;;5.70;99.90;;;;;;6221417;23;20369;-92
2022/04/12 01:46:20;;;;;;;8.57;4.40;;;5.60;99.90;;;;;;6246114;23;20088;-91
2022/04/12 01:48:48;;;;;;;8.15;4.47;;;5.60;99.90;;;;;;6221058;23;20109;-90
2022/04/12 01:51:15;;;;;;;11.23;4.47;;;5.60;99.90;;;;;;6246223;23;20016;-88
2022/04/12 01:53:40;;;;;;;7.28;4.10;;;5.50;99.90;;;;;;6246430;23;20020;-92
2022/04/12 01:56:06;;;;;;;10.17;4.67;;;5.50;99.90;;;;;;6250296;22;20457;-86
2022/04/12 01:58:36;;;;;;;8.63;4.60;;;5.50;99.90;;;;;;6247343;23;20016;-87
2022/04/12 02:01:02;;;;;;;9.60;4.90;;;5.50;99.90;;;;;;6250817;23;20038;-86
2022/04/12 02:03:28;;;;;;;8.18;4.80;;;5.50;99.90;;;;;;6254551;22;20015;-86
2022/04/12 02:05:54;;;;;;;8.23;4.33;;;5.50;99.90;;;;;;6284547;22;20153;-88
2022/04/12 02:08:21;;;;;;;8.15;4.65;;;5.50;99.90;;;;;;6282360;22;20018;-92
2022/04/12 02:10:47;;;;;;;11.35;5.47;;;5.50;99.90;;;;;;6254032;22;20026;-87
2022/04/12 02:13:13;;;;;;;10.27;4.75;;;5.40;99.90;;;;;;6252898;22;20016;-86
2022/04/12 02:15:39;;;;;;;9.23;5.13;;;5.50;99.90;;;;;;6247459;22;20034;-94
2022/04/12 02:18:16;;;;;;;12.23;4.90;;;5.50;99.90;;;;;;6227297;22;20080;-91
2022/04/12 02:20:42;;;;;;;9.90;5.13;;;5.40;99.90;;;;;;6224983;22;20387;-87
2022/04/12 02:23:08;;;;;;;9.77;5.63;;;5.40;99.90;;;;;;6275857;22;20048;-87
2022/04/12 02:25:34;;;;;;;10.63;5.00;;;5.40;99.90;;;;;;6277438;22;20015;-91
2022/04/12 02:27:59;;;;;;;12.27;5.40;;;5.40;99.90;;;;;;6277416;22;20475;-89
2022/04/12 02:30:25;;;;;;;8.50;5.70;;;5.40;99.90;;;;;;6275915;22;20016;-88
2022/04/12 02:32:50;;;;;;;10.33;5.63;;;5.40;99.90;;;;;;6277281;22;20072;-89
2022/04/12 02:35:34;;;;;;;9.43;5.33;;;5.40;99.90;;;;;;6225229;22;20026;-89
2022/04/12 02:38:15;;;;;;;10.43;5.57;;;5.40;99.90;;;;;;6227689;22;20037;-93
2022/04/12 02:40:41;;;;;;;9.20;5.47;;;5.30;99.90;;;;;;6259851;22;20099;-93
2022/04/12 02:43:07;;;;;;;10.47;6.37;;;5.40;99.90;;;;;;6287704;22;20049;-91
2022/04/12 02:45:32;;;;;;;11.67;6.33;;;5.40;99.90;;;;;;6287314;22;20011;-96
2022/04/12 02:48:09;;;;;;;10.87;6.20;;;5.30;99.90;;;;;;6259681;22;20076;-93
2022/04/12 02:50:35;;;;;;;13.80;6.90;;;5.30;99.90;;;;;;6261197;22;20087;-90
2022/04/12 02:53:00;;;;;;;11.37;6.43;;;5.30;99.90;;;;;;6286215;22;20015;-90
2022/04/12 02:55:27;;;;;;;13.80;6.57;;;5.20;99.90;;;;;;6286564;22;20050;-95
2022/04/12 02:57:53;;;;;;;10.18;6.63;;;5.20;99.90;;;;;;6232278;22;20016;-90
2022/04/12 03:00:19;;;;;;;12.02;6.47;;;5.20;99.90;;;;;;6283830;22;20022;-95
2022/04/12 03:02:51;;;;;;;11.57;7.30;;;5.20;99.90;;;;;;6235378;22;20071;-91
2022/04/12 03:05:17;;;;;;;9.65;5.82;;;5.20;99.90;;;;;;6233433;22;20018;-91
2022/04/12 03:07:42;;;;;;;10.07;6.70;;;5.10;99.90;;;;;;6286683;22;20039;-94
2022/04/12 03:12:43;;;;;;;11.18;6.78;;;5.10;99.90;;;;;;6255444;22;20047;-90
2022/04/12 03:15:10;;;;;;;10.77;6.67;;;5.10;99.90;;;;;;6234856;23;20044;-85
2022/04/12 03:17:36;;;;;;;10.77;6.13;;;5.00;99.90;;;;;;6234595;23;20020;-91
2022/04/12 03:20:02;;;;;;;10.55;6.68;;;5.00;99.90;;;;;;6236399;23;20309;-88
2022/04/12 03:22:31;;;;;;;12.35;7.10;;;5.00;99.90;;;;;;6234987;23;20020;-86
2022/04/12 03:24:57;;;;;;;13.87;7.17;;;4.90;99.90;;;;;;6252386;22;20020;-87
2022/04/12 03:27:41;;;;;;;10.07;6.90;;;4.90;99.90;;;;;;6247282;23;20019;-87
2022/04/12 03:30:19;;;;;;;12.88;7.18;;;4.90;99.90;;;;;;6195998;23;20020;-85
2022/04/12 03:32:45;;;;;;;12.10;7.00;;;4.80;99.90;;;;;;6196845;23;20008;-94
2022/04/12 03:35:10;;;;;;;11.83;7.70;;;4.80;99.90;;;;;;6247472;22;20031;-92
2022/04/12 03:37:36;;;;;;;11.30;7.53;;;4.70;99.90;;;;;;6224951;23;20341;-95
2022/04/12 03:40:21;;;;;;;12.83;7.40;;;4.70;99.90;;;;;;6256746;23;20353;-90
2022/04/12 03:42:47;;;;;;;16.50;7.70;;;4.70;99.90;;;;;;6230962;23;20020;-88
2022/04/12 03:45:12;;;;;;;16.90;8.02;;;4.70;99.90;;;;;;6207293;23;20319;-95
2022/04/12 03:47:47;;;;;;;13.27;8.10;;;4.70;99.90;;;;;;6222940;23;20020;-91
2022/04/12 03:50:14;;;;;;;11.40;7.55;;;4.60;99.90;;;;;;6198237;23;20016;-95
2022/04/12 03:52:40;;;;;;;;;;;4.70;99.90;;;;;;6200528;23;20445;-96
2022/04/12 03:55:10;;;;;;;13.70;7.30;;;4.60;99.90;;;;;;6223122;23;19986;-94
2022/04/12 03:57:35;;;;;;;13.65;7.68;;;4.60;99.90;;;;;;6223449;23;20016;-92
2022/04/12 04:00:01;;;;;;;13.95;7.68;;;4.60;99.90;;;;;;6250699;22;20050;-88
2022/04/12 04:02:27;;;;;;;15.17;8.60;;;4.60;99.90;;;;;;6225879;23;20024;-90
2022/04/12 04:04:53;;;;;;;12.47;7.63;;;4.60;99.90;;;;;;6253731;23;20054;-94
2022/04/12 04:07:18;;;;;;;11.57;7.28;;;4.60;99.90;;;;;;6250955;23;20066;-89
2022/04/12 04:09:44;;;;;;;12.37;7.90;;;4.70;99.90;;;;;;6255434;23;20046;-93
2022/04/12 04:12:11;;;;;;;12.97;7.83;;;4.70;99.90;;;;;;6270593;22;20011;-93
2022/04/12 04:14:39;;;;;;;12.50;7.28;;;4.70;99.90;;;;;;6254654;22;20016;-86
2022/04/12 04:17:04;;;;;;;12.15;7.55;;;4.70;99.90;;;;;;6257620;22;20051;-96
2022/04/12 04:19:31;;;;;;;12.65;7.75;;;4.70;99.90;;;;;;6289093;22;20016;-91
2022/04/12 04:21:56;;;;;;;14.55;8.75;;;4.70;99.90;;;;;;6287268;22;20016;-92
2022/04/12 04:24:23;;;;;;;12.27;8.50;;;4.70;99.90;;;;;;6259781;22;20050;-93
2022/04/12 04:26:54;;;;;;;13.60;7.63;;;4.70;99.90;;;;;;6234670;22;20063;-91
2022/04/12 04:29:22;;;;;;;12.95;8.00;;;4.70;99.90;;;;;;6289777;22;20012;-89
2022/04/12 04:31:48;;;;;;;14.23;7.97;;;4.70;99.90;;;;;;6257778;22;20031;-88
2022/04/12 04:34:26;;;;;;;15.43;8.35;;;4.70;99.90;;;;;;6289284;22;20020;-90
2022/04/12 04:37:10;;;;;;;16.55;8.38;;;4.70;99.90;;;;;;6234381;22;20011;-93
2022/04/12 04:39:36;;;;;;;12.30;7.65;;;4.70;99.90;;;;;;6233375;22;20016;-92
2022/04/12 04:42:05;;;;;;;14.90;8.75;;;4.70;99.90;;;;;;6233210;22;20126;-90
2022/04/12 04:44:31;;;;;;;12.70;8.38;;;4.70;99.90;;;;;;6261667;22;20023;-89
2022/04/12 04:46:57;;;;;;;12.13;7.90;;;4.70;99.90;;;;;;6239746;22;20018;-92
2022/04/12 04:49:22;;;;;;;12.60;7.77;;;4.70;99.90;;;;;;6236406;22;20266;-89
2022/04/12 04:52:10;;;;;;;13.27;8.10;;;4.70;99.90;;;;;;6236604;22;20041;-87
2022/04/12 04:55:07;;;;;;;13.85;9.15;;;4.60;99.90;;;;;;6236338;22;20015;-87
2022/04/12 04:57:46;;;;;;;18.92;8.38;;;4.60;99.90;;;;;;6274497;22;20534;-82
2022/04/12 05:00:15;;;;;;;12.43;8.13;;;4.60;99.90;;;;;;6255974;22;20016;-83
2022/04/12 05:02:49;;;;;;;13.40;7.95;;;4.60;99.90;;;;;;6250976;22;20020;-84
2022/04/12 05:05:15;;;;;;;14.27;8.55;;;4.60;99.90;;;;;;6225705;22;20023;-88
2022/04/12 05:07:44;;;;;;;12.57;8.20;;;4.60;99.90;;;;;;6278149;22;20479;-92
2022/04/12 05:10:14;;;;;;;13.38;8.55;;;4.60;99.90;;;;;;6250653;22;20463;-85
2022/04/12 05:12:40;;;;;;;11.73;7.78;;;4.60;99.90;;;;;;6276489;22;20065;-85
2022/04/12 05:15:06;;;;;;;13.32;8.25;;;4.60;99.90;;;;;;6251067;22;20353;-90
2022/04/12 05:17:32;;;;;;;13.23;8.38;;;4.60;99.90;;;;;;6250759;22;20027;-87
2022/04/12 05:19:58;;;;;;;14.17;8.37;;;4.60;99.90;;;;;;6277898;22;20019;-87
2022/04/12 05:22:25;;;;;;;13.57;9.00;;;4.60;99.90;;;;;;6250492;22;20019;-85
2022/04/12 05:24:51;;;;;;;12.65;8.10;;;4.60;99.90;;;;;;6250650;22;20016;-85
2022/04/12 05:27:36;;;;;;;13.98;8.40;;;4.60;99.90;;;;;;6270184;22;20099;-88
2022/04/12 05:30:04;;;;;;;14.05;8.13;;;4.60;99.90;;;;;;6220553;23;20027;-90
2022/04/12 05:32:30;;;;;;;14.52;8.55;;;4.60;99.90;;;;;;6245536;23;20016;-89
2022/04/12 05:34:56;;;;;;;14.13;8.65;;;4.60;99.90;;;;;;6245898;23;20323;-87
2022/04/12 05:37:21;;;;;;;13.97;8.47;;;4.60;99.90;;;;;;6246000;23;20299;-87
2022/04/12 05:39:47;;;;;;;14.73;8.83;;;4.60;99.90;;;;;;6247582;23;20059;-87
2022/04/12 05:42:13;;;;;;;14.13;8.90;;;4.60;99.90;;;;;;6245838;23;20024;-85
2022/04/12 05:45:02;;;;;;;15.27;9.30;;;4.70;99.90;;;;;;6247495;23;20373;-86
2022/04/12 05:48:05;;;;;;;14.15;8.48;;;4.80;99.90;;;;;;6215413;23;20107;-90
2022/04/12 05:50:31;;;;;;;14.02;8.70;;;4.90;99.90;;;;;;6219885;23;20341;-94
2022/04/12 05:52:57;;;;;;;15.13;8.73;;;5.00;99.90;;;;;;6246086;23;20059;-92
2022/04/12 05:55:26;;;;;;;12.57;8.70;;;5.20;99.90;;;;;;6246865;23;20353;-86
2022/04/12 05:58:00;;;;;;;13.48;8.98;;;5.30;99.90;;;;;;6245052;23;20356;-88
2022/04/12 06:00:29;;;;;;;12.98;8.38;;;5.50;99.90;;;;;;6219704;23;20047;-87
2022/04/12 06:02:55;;;;;;;15.05;8.80;;;5.70;99.90;;;;;;6219724;23;20055;-88
2022/04/12 06:05:22;;;;;;;12.18;8.80;;;5.90;99.90;;;;;;6219791;23;20008;-88
2022/04/12 06:07:48;;;;;;;13.82;8.55;;;6.10;99.90;;;;;;6219747;23;20020;-89
2022/04/12 06:10:16;;;;;;;12.10;8.20;;;6.20;99.90;;;;;;6270966;22;20023;-88
2022/04/12 06:12:49;;;;;;;12.65;8.25;;;6.10;99.90;;;;;;6219904;23;20732;-90
2022/04/12 06:15:15;;;;;;;15.50;8.35;;;6.10;99.90;;;;;;6194483;23;20031;-88
2022/04/12 06:17:41;;;;;;;14.87;8.30;;;6.10;99.90;;;;;;6244772;22;20012;-88
2022/04/12 06:20:09;;;;;;;13.67;8.70;;;6.20;99.90;;;;;;6242852;23;20087;-88
2022/04/12 06:22:36;;;;;;;12.07;8.70;;;6.20;99.90;;;;;;6244013;23;20016;-86
2022/04/12 06:25:02;;;;;;;12.38;8.77;;;6.20;99.90;;;;;;6219360;23;20018;-87
2022/04/12 06:27:32;;;;;;;14.93;9.95;;;6.20;99.90;;;;;;6244024;23;20087;-85
2022/04/12 06:30:02;;;;;;;14.45;8.82;;;6.30;99.90;;;;;;6244216;23;20020;-89
2022/04/12 06:32:28;;;;;;;13.77;8.85;;;6.40;99.90;;;;;;6244484;23;20016;-88
2022/04/12 06:34:54;;;;;;;13.70;8.83;;;6.40;99.90;;;;;;6244544;23;20464;-86
2022/04/12 06:37:24;;;;;;;15.40;9.87;;;6.50;99.90;;;;;;6218972;23;20019;-88
2022/04/12 06:39:49;;;;;;;11.60;8.57;;;6.60;99.90;;;;;;6244004;23;20251;-87
2022/04/12 06:42:15;;;;;;;14.37;9.37;;;6.70;99.90;;;;;;6244185;23;20055;-86
2022/04/12 06:44:41;;;;;;;14.23;9.53;;;6.70;99.90;;;;;;6244372;23;20016;-87
2022/04/12 06:47:08;;;;;;;15.82;9.88;;;6.70;99.90;;;;;;6246499;23;20012;-90
2022/04/12 06:49:33;;;;;;;14.35;9.60;;;6.90;99.90;;;;;;6246877;23;20134;-93
2022/04/12 06:52:02;;;;;;;17.63;10.40;;;7.00;99.90;;;;;;6245810;23;20016;-92
2022/04/12 06:54:27;;;;;;;14.43;9.40;;;7.10;99.90;;;;;;6196140;23;20016;-92
2022/04/12 06:56:53;;;;;;;12.93;9.07;;;7.20;99.90;;;;;;6220306;23;20091;-91
2022/04/12 06:59:52;;;;;;;13.73;9.43;;;7.20;99.90;;;;;;6245723;23;20023;-92
2022/04/12 07:04:57;;;;;;;15.27;10.07;;;7.20;99.90;;;;;;6277490;22;20019;-91
2022/04/12 07:07:26;;;;;;;15.73;10.00;;;7.20;99.90;;;;;;6225063;22;20125;-91
2022/04/12 07:09:51;;;;;;;17.77;9.33;;;7.20;99.90;;;;;;6225230;22;20444;-91
2022/04/12 07:12:24;;;;;;;16.13;10.00;;;7.10;99.90;;;;;;6225368;22;20020;-91
2022/04/12 07:22:42;;;;;;;14.55;9.45;;;7.30;99.90;;;;;;6244402;22;20050;-93
2022/04/12 07:25:09;;;;;;;17.48;9.57;;;7.40;99.90;;;;;;6202014;23;20091;-91
2022/04/12 07:27:53;;;;;;;15.75;10.13;;;7.50;99.90;;;;;;6223642;23;20012;-92
2022/04/12 07:48:31;;;;;;;14.93;9.70;;;8.80;99.90;;;;;;6276783;22;20089;-92
2022/04/12 07:50:56;;;;;;;13.68;8.50;;;8.90;99.90;;;;;;6249418;22;20024;-89
2022/04/12 07:53:22;;;;;;;15.43;9.37;;;8.90;99.90;;;;;;6224442;22;20019;-90
2022/04/12 07:56:09;;;;;;;15.07;9.90;;;9.00;99.90;;;;;;6224574;22;20019;-89
2022/04/12 07:58:34;;;;;;;14.43;9.25;;;9.10;99.90;;;;;;6249436;22;20453;-87
2022/04/12 08:01:02;;;;;;;12.27;9.03;;;9.20;99.90;;;;;;6249189;22;20023;-91
2022/04/12 08:03:43;;;;;;;12.90;9.05;;;9.30;99.90;;;;;;6249149;22;20055;-92
2022/04/12 08:06:11;;;;;;;13.20;8.95;;;9.40;99.90;;;;;;6224999;22;20016;-95
2022/04/12 08:08:52;;;;;;;14.68;9.27;;;9.40;99.90;;;;;;6227315;22;20106;-95
2022/04/12 08:11:20;;;;;;;13.52;9.57;;;9.50;99.90;;;;;;6231464;22;20043;-93
2022/04/12 08:13:46;;;;;;;14.85;9.20;;;9.60;99.90;;;;;;6231393;22;20018;-93
2022/04/12 08:16:15;;;;;;;14.40;9.90;;;9.70;99.90;;;;;;6226640;22;20371;-90
2022/04/12 08:18:43;;;;;;;12.50;9.18;;;9.80;99.90;;;;;;6226222;22;20098;-92
2022/04/12 08:21:08;;;;;;;11.55;8.80;;;9.90;99.90;;;;;;6225982;22;20016;-86
2022/04/12 08:23:34;;;;;;;12.43;9.60;;;9.90;99.90;;;;;;6276923;22;20085;-86
2022/04/12 08:31:13;;;;;;;17.10;9.40;;;10.20;99.90;;;;;;6245945;23;20024;-90
2022/04/12 08:33:42;;;;;;;15.68;10.05;;;10.30;99.90;;;;;;6193227;23;20461;-93
2022/04/12 08:36:07;;;;;;;11.98;8.43;;;10.50;99.90;;;;;;6194466;23;20449;-91
2022/04/12 08:38:36;;;;;;;13.45;9.05;;;10.50;99.90;;;;;;6194988;23;20349;-92
2022/04/12 08:41:02;;;;;;;13.20;9.10;;;10.60;99.90;;;;;;6218965;23;20016;-90
2022/04/12 08:43:29;;;;;;;13.20;8.93;;;10.70;99.90;;;;;;6221357;23;20065;-92
2022/04/12 08:45:55;;;;;;;13.70;9.32;;;10.70;99.90;;;;;;6219699;23;20015;-90
2022/04/12 08:48:22;;;;;;;16.35;9.18;;;10.90;99.90;;;;;;6220371;23;20023;-91
2022/04/12 08:50:49;;;;;;;15.63;8.63;;;10.90;99.90;;;;;;6220512;23;20012;-90
2022/04/12 08:53:17;;;;;;;12.75;8.75;;;11.00;99.90;;;;;;6220783;23;20054;-90
2022/04/12 08:55:43;;;;;;;12.57;8.95;;;11.10;99.90;;;;;;6221090;23;20016;-92
2022/04/12 08:58:09;;;;;;;15.40;9.35;;;11.10;99.90;;;;;;6219985;23;20018;-90
2022/04/12 09:00:46;;;;;;;13.53;9.27;;;11.20;99.90;;;;;;6220715;23;20044;-92
2022/04/12 09:03:15;;;;;;;14.05;8.80;;;11.30;99.90;;;;;;6220865;23;20418;-91
2022/04/12 09:06:23;;;;;;;14.30;10.20;;;11.30;99.90;;;;;;6244581;23;20162;-91
2022/04/12 09:08:48;;;;;;;12.68;9.63;;;11.30;99.90;;;;;;6245465;23;20028;-93
2022/04/12 09:11:15;;;;;;;16.30;10.00;;;11.40;99.90;;;;;;6220581;23;20012;-90
2022/04/12 09:14:00;;;;;;;14.07;9.13;;;11.40;99.90;;;;;;6221173;23;20305;-91
2022/04/12 09:16:30;;;;;;;11.27;8.10;;;11.60;99.90;;;;;;6220724;23;20016;-91
2022/04/12 09:19:57;;;;;;;14.20;9.50;;;11.60;99.90;;;;;;6222295;23;20074;-93
2022/04/12 09:22:34;;;;;;;13.45;9.88;;;11.60;99.90;;;;;;6244909;23;20032;-92
2022/04/12 09:25:01;;;;;;;14.65;9.10;;;11.70;99.90;;;;;;6220517;23;20046;-90
2022/04/12 09:27:29;;;;;;;13.13;9.35;;;11.70;99.90;;;;;;6220555;23;20012;-92
2022/04/12 09:29:57;;;;;;;13.98;9.65;;;11.70;99.90;;;;;;6220729;23;20012;-91
2022/04/12 09:32:28;;;;;;;17.77;9.70;;;11.70;99.90;;;;;;6202342;23;20020;-92
2022/04/12 09:34:55;;;;;;;15.30;10.00;;;11.80;99.90;;;;;;6215794;23;20434;-93
2022/04/12 09:37:33;;;;;;;14.02;9.60;;;11.90;99.90;;;;;;6190467;23;20016;-90
2022/04/12 09:39:59;;;;;;;14.43;10.27;;;12.00;99.90;;;;;;6220110;23;20020;-90
2022/04/12 09:42:57;;;;;;;15.90;10.27;;;12.10;99.90;;;;;;6195597;23;20020;-94
2022/04/12 09:45:30;;;;;;;13.57;9.48;;;12.30;99.90;;;;;;6196418;23;20050;-92
2022/04/12 09:48:02;;;;;;;14.13;9.90;;;12.50;99.90;;;;;;6220743;23;20099;-92
2022/04/12 09:50:32;;;;;;;14.13;8.93;;;12.50;99.90;;;;;;6220589;23;20046;-92
2022/04/12 09:53:03;;;;;;;15.18;9.95;;;12.60;99.90;;;;;;6195236;23;20012;-91
2022/04/12 09:55:46;;;;;;;12.40;9.38;;;12.70;99.90;;;;;;6195498;23;20100;-90
2022/04/12 09:58:14;;;;;;;16.05;10.38;;;12.80;99.90;;;;;;6220286;23;20020;-91
2022/04/12 10:00:42;;;;;;;13.57;9.70;;;12.90;99.90;;;;;;6195188;23;20341;-91
2022/04/12 10:03:10;;;;;;;14.45;10.23;;;13.00;99.90;;;;;;6194958;23;20023;-91
2022/04/12 10:05:36;;;;;;;13.68;9.57;;;13.10;99.90;;;;;;6195327;23;20043;-91
2022/04/12 10:08:04;;;;;;;14.43;9.90;;;13.30;99.90;;;;;;6195378;23;20020;-91
2022/04/12 10:10:30;;;;;;;12.80;10.00;;;13.30;99.90;;;;;;6195559;23;20146;-90
2022/04/12 10:12:58;;;;;;;14.57;10.13;;;13.40;99.90;;;;;;6195224;23;20016;-90
2022/04/12 10:15:26;;;;;;;15.80;10.93;;;13.50;99.90;;;;;;6195535;23;20016;-92
2022/04/12 10:17:52;;;;;;;14.77;9.70;;;13.60;99.90;;;;;;6195064;23;20338;-93
2022/04/12 10:20:19;;;;;;;14.02;10.13;;;13.70;99.90;;;;;;6221736;23;20468;-91
2022/04/12 10:22:45;;;;;;;;;;;13.80;99.90;;;;;;6246766;23;20062;-92
2022/04/12 10:25:22;;;;;;;15.02;9.90;;;13.90;99.90;;;;;;6220429;23;20317;-91
2022/04/12 10:27:57;;;;;;;15.05;11.13;;;13.90;99.90;;;;;;6195208;23;20099;-91
2022/04/12 10:30:31;;;;;;;13.95;10.65;;;14.00;99.90;;;;;;6195292;23;20020;-92
2022/04/12 10:33:04;;;;;;;14.38;10.60;;;14.10;99.90;;;;;;6197763;23;20020;-92
2022/04/12 10:35:52;;;;;;;14.30;10.82;;;14.20;99.90;;;;;;6195282;23;20082;-91
2022/04/12 10:44:41;;;;;;;13.57;9.90;;;14.60;99.90;;;;;;6207256;23;20405;-92
2022/04/12 10:47:35;;;;;;;15.40;10.45;;;14.80;99.80;;;;;;6194791;23;20038;-92
2022/04/12 10:57:47;;;;;;;15.32;9.85;;;15.10;98.80;;;;;;6264752;22;20026;-91
2022/04/12 11:00:18;;;;;;;16.52;10.73;;;15.20;98.60;;;;;;6225344;22;20019;-91
2022/04/12 11:03:06;;;;;;;16.30;10.48;;;15.20;97.40;;;;;;6225331;22;20016;-91
2022/04/12 11:05:35;;;;;;;15.50;10.93;;;15.10;96.80;;;;;;6224888;22;20372;-90
2022/04/12 11:08:32;;;;;;;13.98;9.68;;;15.10;96.90;;;;;;6224821;22;20012;-93
2022/04/12 11:10:58;;;;;;;15.88;10.73;;;15.20;97.70;;;;;;6224561;22;20023;-90
2022/04/12 11:13:28;;;;;;;17.00;10.73;;;15.30;97.10;;;;;;6225022;22;20012;-90
2022/04/12 11:16:03;;;;;;;14.55;10.48;;;15.30;96.30;;;;;;6224814;22;20035;-95
2022/04/12 11:18:58;;;;;;;14.93;10.15;;;15.40;95.60;;;;;;6225230;22;20038;-92
2022/04/12 11:21:54;;;;;;;16.25;10.15;;;15.50;95.50;;;;;;6225591;22;20098;-92
2022/04/12 11:24:24;;;;;;;14.07;9.32;;;15.60;95.00;;;;;;6224784;22;20012;-95
2022/04/12 11:27:18;;;;;;;14.82;9.43;;;15.70;95.60;;;;;;6225012;22;20094;-94
2022/04/12 11:29:44;;;;;;;14.20;10.15;;;15.80;95.40;;;;;;6221238;22;20015;-92
2022/04/12 11:32:11;;;;;;;14.23;9.70;;;15.90;95.20;;;;;;6225328;22;20069;-92
2022/04/12 11:34:38;;;;;;;15.82;10.85;;;15.90;95.10;;;;;;6224541;22;20023;-93
2022/04/12 11:37:10;;;;;;;15.52;10.98;;;16.00;95.00;;;;;;6224607;22;20090;-93
2022/04/12 11:39:50;;;;;;;15.30;10.05;;;16.00;94.70;;;;;;6225064;22;20048;-94
2022/04/12 11:42:16;;;;;;;14.50;10.80;;;16.10;94.50;;;;;;6224856;22;20020;-92
2022/04/12 11:44:54;;;;;;;13.98;10.60;;;16.10;94.80;;;;;;6224774;22;20016;-93
2022/04/12 11:47:33;;;;;;;13.75;10.27;;;16.10;95.20;;;;;;6226887;22;20342;-91
2022/04/12 11:50:00;;;;;;;16.45;10.15;;;16.20;96.00;;;;;;6226999;22;20385;-91
2022/04/12 11:52:26;;;;;;;;;;;16.20;95.00;;;;;;6227365;22;20445;-95
2022/04/12 11:55:00;;;;;;;13.32;9.38;;;16.40;95.80;;;;;;6252109;22;19921;-94
2022/04/12 11:57:26;;;;;;;14.52;10.10;;;16.40;94.70;;;;;;6226622;22;20051;-93
2022/04/12 12:00:08;;;;;;;13.85;9.68;;;16.50;93.70;;;;;;6227153;22;20016;-94
2022/04/12 12:02:39;;;;;;;14.43;10.25;;;16.50;93.50;;;;;;6225724;22;20023;-93
2022/04/12 12:05:10;;;;;;;13.82;9.93;;;16.40;93.80;;;;;;6226589;22;20012;-93
2022/04/12 12:07:46;;;;;;;18.27;10.80;;;16.40;94.00;;;;;;6227546;22;20015;-93
2022/04/12 12:10:13;;;;;;;16.52;10.15;;;16.40;93.70;;;;;;6226529;22;20051;-95
2022/04/12 12:12:56;;;;;;;13.57;10.82;;;16.40;93.50;;;;;;6226766;22;20043;-93
2022/04/12 12:15:30;;;;;;;16.88;10.45;;;16.40;94.30;;;;;;6226601;22;20441;-91
2022/04/12 12:17:56;;;;;;;17.25;10.68;;;16.50;94.60;;;;;;6226601;22;20051;-92
2022/04/12 12:20:25;;;;;;;15.93;10.70;;;16.50;94.50;;;;;;6226700;22;20023;-92
2022/04/12 12:22:56;;;;;;;15.30;10.80;;;16.60;94.40;;;;;;6226375;22;20345;-93
2022/04/12 12:25:56;;;;;;;15.40;11.15;;;16.60;94.80;;;;;;6251650;22;20441;-93
2022/04/12 12:28:26;;;;;;;14.02;11.07;;;16.60;94.90;;;;;;6226575;22;20020;-93
2022/04/12 12:31:10;;;;;;;13.50;10.45;;;16.70;95.50;;;;;;6226280;22;20016;-92
2022/04/12 12:33:47;;;;;;;13.52;10.15;;;16.70;95.10;;;;;;6226255;22;20020;-92
2022/04/12 12:36:20;;;;;;;13.48;9.60;;;16.70;94.40;;;;;;6226142;22;20012;-93
2022/04/12 12:38:55;;;;;;;12.00;9.30;;;16.70;94.10;;;;;;6251605;22;20015;-92
2022/04/12 12:41:30;;;;;;;14.07;9.52;;;16.70;93.60;;;;;;6226020;22;20098;-93
2022/04/12 12:43:58;;;;;;;13.45;9.32;;;16.80;93.50;;;;;;6226156;22;20011;-93
2022/04/12 12:46:28;;;;;;;13.70;9.30;;;16.80;93.60;;;;;;6226404;22;20033;-93
2022/04/12 12:49:16;;;;;;;12.75;9.15;;;16.90;93.30;;;;;;6226372;22;20008;-92
2022/04/12 12:51:42;;;;;;;14.18;9.45;;;17.00;93.40;;;;;;6224415;22;20445;-93
2022/04/12 12:54:18;;;;;;;14.43;9.63;;;17.00;93.60;;;;;;6226505;22;20392;-92
2022/04/12 12:56:47;;;;;;;15.00;9.82;;;17.10;93.80;;;;;;6226241;22;20052;-92
2022/04/12 12:59:29;;;;;;;14.10;9.55;;;17.10;93.60;;;;;;6226007;22;20023;-91
2022/04/12 13:01:56;;;;;;;15.45;9.43;;;17.10;93.40;;;;;;6225900;22;20019;-94
2022/04/12 13:04:29;;;;;;;13.45;9.30;;;17.10;93.60;;;;;;6252357;22;20019;-93
2022/04/12 13:07:11;;;;;;;12.18;8.90;;;17.10;93.60;;;;;;6226290;22;20015;-95
2022/04/12 13:09:54;;;;;;;;;;;;;;;;;;;;;
2022/04/12 13:12:30;;;;;;;14.38;9.10;;;17.20;92.80;;;;;;6251390;22;20023;-91
2022/04/12 13:14:55;;;;;;;13.82;9.68;;;17.30;92.00;;;;;;6226481;22;20468;-91
2022/04/12 13:17:21;;;;;;;12.82;9.38;;;17.40;91.60;;;;;;6251646;22;20314;-91
2022/04/12 13:19:47;;;;;;;13.25;9.38;;;17.40;91.70;;;;;;6226143;22;20007;-93
2022/04/12 13:22:19;;;;;;;16.98;10.20;;;17.40;91.70;;;;;;6251090;22;20467;-93
2022/04/12 13:24:44;;;;;;;15.10;10.10;;;17.40;91.70;;;;;;6225707;22;20022;-95
2022/04/12 13:27:11;;;;;;;16.00;9.93;;;17.30;91.80;;;;;;6251153;22;20019;-93
2022/04/12 13:29:52;;;;;;;15.25;9.75;;;17.30;91.40;;;;;;6225709;22;20016;-92
2022/04/12 13:32:21;;;;;;;15.63;10.65;;;17.20;91.50;;;;;;6225865;22;20102;-91
2022/04/12 13:35:07;;;;;;;;;;;;;;;;;;;;;
2022/04/12 13:37:33;;;;;;;14.38;9.80;;;17.10;91.40;;;;;;6250844;22;20020;-92
2022/04/12 13:39:59;;;;;;;14.18;9.13;;;17.10;91.60;;;;;;6225790;22;20097;-92
2022/04/12 13:42:24;;;;;;;18.52;10.48;;;17.10;92.10;;;;;;6225813;22;20469;-94
2022/04/12 13:44:53;;;;;;;16.42;10.15;;;17.10;92.20;;;;;;6226125;22;20016;-93
2022/04/12 13:47:18;;;;;;;14.25;10.18;;;17.10;92.30;;;;;;6225658;22;20349;-91
2022/04/12 13:49:45;;;;;;;15.52;10.45;;;17.20;92.90;;;;;;6225734;22;20016;-90
2022/04/12 13:52:14;;;;;;;15.25;9.32;;;17.20;92.30;;;;;;6225426;22;20099;-90
2022/04/12 13:54:42;;;;;;;19.40;10.80;;;17.20;92.30;;;;;;6225668;22;20012;-93
2022/04/12 13:57:17;;;;;;;16.05;10.27;;;17.20;92.50;;;;;;6225058;22;20439;-92